1992 A39192 (1991290S10077)


On this page: IBTrACS data - Map and Plots - Positions - Intensities - Original source data

Summary

Start Oct 16
End Oct 22
Basin SI
LMI 28 kt
Source reunion
In WMO? Yes
Previous storm 1991 RUTH (WP)
Previous in basin 1992 A29192 (SI)
Concurrent storms 1991 MARTY (EP)
1992 A29192 (SI)
1991 FABIAN (NA)
1991 RUTH (WP)
1992 A39192 (SI)
Next in basin Missing
Next storm 1991 MISSING (NA)

top of page IBTrACS Data: File Access

Image of storm

top of page Plots:

Map of storm track will not appear if FTP is down
Time series of cyclone Maximum Sustained Wind will not appear if FTP is down
Time series of cyclone Minimum Central Pressure will not appear if FTP is down

top of page Track Data:Position

reunion
Date Lat Lon
1991-10-16 12:00:00 -10.0 76.5
1991-10-16 18:00:00 -10.4 75.9
1991-10-17 00:00:00 -10.6 75.2
1991-10-17 06:00:00 -10.7 74.7
1991-10-17 12:00:00 -10.8 74.3
1991-10-17 18:00:00 -10.8 74.0
1991-10-18 00:00:00 -10.9 73.6
1991-10-18 06:00:00 -11.3 73.8
1991-10-18 12:00:00 -11.6 74.1
1991-10-18 18:00:00 -11.8 74.3
1991-10-19 00:00:00 -12.0 74.5
1991-10-19 06:00:00 -12.2 74.7
1991-10-19 12:00:00 -12.5 74.7
1991-10-19 18:00:00 -12.7 74.5
1991-10-20 00:00:00 -13.0 74.2
1991-10-20 06:00:00 -13.2 73.9
1991-10-20 12:00:00 -13.4 73.5
1991-10-20 18:00:00 -13.9 72.3
1991-10-21 00:00:00 -14.1 69.2
1991-10-21 06:00:00 -14.2 67.4
1991-10-21 12:00:00 -14.2 66.3
1991-10-21 18:00:00 -14.2 65.2
1991-10-22 00:00:00 -14.1 64.2
1991-10-22 06:00:00 -14.0 63.2
1991-10-22 12:00:00 -13.9 62.3

top of pageTrack Data:Intensity

reunion
Date Wind Pres
1991-10-16 12:00:00 20. 1005.
1991-10-16 18:00:00 20. 1005.
1991-10-17 00:00:00 20. 1005.
1991-10-17 06:00:00 20. 1005.
1991-10-17 12:00:00 20. 1005.
1991-10-17 18:00:00 20. 1005.
1991-10-18 00:00:00 20. 1005.
1991-10-18 06:00:00 20. 1005.
1991-10-18 12:00:00 20. 1002.
1991-10-18 18:00:00 20. 1002.
1991-10-19 00:00:00 20. 1002.
1991-10-19 06:00:00 24. 1000.
1991-10-19 12:00:00 24. 1000.
1991-10-19 18:00:00 28. 997.
1991-10-20 00:00:00 28. 997.
1991-10-20 06:00:00 28. 997.
1991-10-20 12:00:00 28. 997.
1991-10-20 18:00:00 28. 997.
1991-10-21 00:00:00 24. 1000.
1991-10-21 06:00:00 24. 1000.
1991-10-21 12:00:00 20. 1002.
1991-10-21 18:00:00 20. 1005.
1991-10-22 00:00:00 20. 1005.
1991-10-22 06:00:00
1991-10-22 12:00:00

top of page Links to source data

Source Source file Format
reunion WMO-Best-Tracks.txt:Line=15420:a39192 WMO (old format)